Time;durP1;ratioP1;P1;durP2;ratioP2;P2;SDS_P1;SDS_P2;PMS_P1;PMS_P2;Temp;Humidity;BMP_temperature;BMP_pressure;BME280_temperature;BME280_humidity;BME280_pressure;Samples;Min_cycle;Max_cycle;Signal;HPM_P1;HPM_P2
2021/10/31 05:00:32;;;;;;;96.33;76.67;;;8.90;99.70;;;;;;5050958;28;20264;-64
2021/10/31 05:02:59;;;;;;;94.87;61.17;;;8.80;99.70;;;;;;5050842;28;20205;-63
2021/10/31 05:05:26;;;;;;;86.67;41.13;;;8.70;99.70;;;;;;5050734;28;20489;-63
2021/10/31 05:07:55;;;;;;;82.73;30.10;;;8.80;99.70;;;;;;5050125;28;20792;-62
2021/10/31 05:10:22;;;;;;;79.53;32.23;;;8.80;99.70;;;;;;5050872;28;20443;-60
2021/10/31 05:12:49;;;;;;;79.50;32.30;;;8.80;99.70;;;;;;5050547;28;21028;-62
2021/10/31 05:15:16;;;;;;;78.17;32.07;;;8.90;99.70;;;;;;5050445;28;20444;-63
2021/10/31 05:17:44;;;;;;;79.63;28.60;;;8.90;99.70;;;;;;5049723;28;20472;-62
2021/10/31 05:20:12;;;;;;;77.23;28.63;;;8.90;99.70;;;;;;5049291;28;20448;-63
2021/10/31 05:22:40;;;;;;;77.40;30.17;;;8.80;99.70;;;;;;5050468;28;20647;-62
2021/10/31 05:25:08;;;;;;;79.20;32.87;;;8.80;99.70;;;;;;5050246;28;20448;-63
2021/10/31 05:27:36;;;;;;;77.50;29.50;;;8.80;99.70;;;;;;5049817;28;20545;-63
2021/10/31 05:30:03;;;;;;;78.77;29.27;;;8.60;99.70;;;;;;5050500;28;20470;-65
2021/10/31 05:32:33;;;;;;;77.60;28.80;;;8.50;99.70;;;;;;5050492;28;20841;-64
2021/10/31 05:35:01;;;;;;;78.67;28.90;;;8.50;99.70;;;;;;5050021;28;20447;-63
2021/10/31 05:37:34;;;;;;;79.50;30.53;;;8.50;99.70;;;;;;5049417;28;20444;-63
2021/10/31 05:40:01;;;;;;;76.40;28.87;;;8.50;99.70;;;;;;5050273;28;20451;-63
2021/10/31 05:42:28;;;;;;;86.00;42.63;;;8.50;99.70;;;;;;5050064;28;20478;-63
2021/10/31 05:44:54;;;;;;;82.13;31.90;;;8.50;99.70;;;;;;5049748;28;20439;-62
2021/10/31 05:47:21;;;;;;;81.97;29.33;;;8.40;99.70;;;;;;5049266;28;20984;-63
2021/10/31 05:49:48;;;;;;;78.20;30.47;;;8.40;99.70;;;;;;5049891;28;20973;-63
2021/10/31 05:52:16;;;;;;;80.23;27.57;;;8.50;99.70;;;;;;5050132;28;20828;-62
2021/10/31 05:54:43;;;;;;;77.37;31.93;;;8.60;99.70;;;;;;5049604;28;20451;-63
2021/10/31 05:57:10;;;;;;;84.67;35.03;;;8.80;99.70;;;;;;5049314;28;20456;-62
2021/10/31 05:59:37;;;;;;;77.30;27.20;;;8.90;99.70;;;;;;5049744;28;20483;-64
2021/10/31 06:02:04;;;;;;;79.30;34.37;;;8.80;99.70;;;;;;5049745;28;20439;-63
2021/10/31 06:04:33;;;;;;;84.93;35.73;;;8.80;99.70;;;;;;5049540;28;20447;-64
2021/10/31 06:06:59;;;;;;;81.20;32.57;;;8.70;99.70;;;;;;5049098;28;20443;-64
2021/10/31 06:09:27;;;;;;;80.67;36.07;;;8.60;99.70;;;;;;5049581;28;20459;-63
2021/10/31 06:11:54;;;;;;;81.33;37.70;;;8.60;99.70;;;;;;5049765;28;20451;-63
2021/10/31 06:14:21;;;;;;;79.70;36.80;;;8.40;99.70;;;;;;5049267;28;20448;-60
2021/10/31 06:16:48;;;;;;;80.30;33.67;;;8.40;99.70;;;;;;5048890;28;20501;-64
2021/10/31 06:19:15;;;;;;;76.97;32.17;;;8.40;99.70;;;;;;5049360;28;20483;-64
2021/10/31 06:21:41;;;;;;;74.60;31.47;;;8.50;99.70;;;;;;5048057;28;20543;-63
2021/10/31 06:24:08;;;;;;;74.67;29.67;;;8.50;99.70;;;;;;5049161;28;20444;-64
2021/10/31 06:26:36;;;;;;;78.83;31.53;;;8.50;99.70;;;;;;5048798;28;20807;-63
2021/10/31 06:29:03;;;;;;;78.90;39.23;;;8.50;99.70;;;;;;5049060;28;20471;-63
2021/10/31 06:31:29;;;;;;;79.97;39.90;;;8.60;99.70;;;;;;5049526;28;20451;-63
2021/10/31 06:33:56;;;;;;;79.60;40.43;;;8.60;99.70;;;;;;5049188;28;20447;-63
2021/10/31 06:36:23;;;;;;;79.93;34.10;;;8.70;99.70;;;;;;5048684;28;20456;-64
2021/10/31 06:38:49;;;;;;;75.00;30.10;;;8.70;99.70;;;;;;5048543;28;20483;-63
2021/10/31 06:41:16;;;;;;;76.83;36.07;;;8.80;99.70;;;;;;5049280;28;20447;-63
2021/10/31 06:43:44;;;;;;;74.60;29.07;;;9.00;99.70;;;;;;5048922;28;20448;-64
2021/10/31 06:46:11;;;;;;;78.53;33.77;;;9.00;99.70;;;;;;5048829;28;20530;-63
2021/10/31 06:48:37;;;;;;;76.43;33.37;;;9.00;99.70;;;;;;5049002;28;20996;-64
2021/10/31 06:51:04;;;;;;;83.87;35.37;;;9.00;99.70;;;;;;5048986;28;20448;-63
2021/10/31 06:53:31;;;;;;;73.07;28.37;;;9.00;99.70;;;;;;5048974;28;20985;-63
2021/10/31 06:55:58;;;;;;;76.90;28.73;;;9.00;99.70;;;;;;5049067;28;20505;-63
2021/10/31 06:58:25;;;;;;;77.70;36.70;;;8.90;99.70;;;;;;5048771;28;20994;-62
2021/10/31 07:00:53;;;;;;;79.00;37.13;;;8.80;99.70;;;;;;5049208;28;20979;-63
2021/10/31 07:03:20;;;;;;;77.77;36.57;;;9.00;99.70;;;;;;5049285;28;20468;-63
2021/10/31 07:05:46;;;;;;;76.30;38.07;;;9.10;99.70;;;;;;5048797;28;20451;-63
2021/10/31 07:08:13;;;;;;;76.87;38.57;;;9.30;99.70;;;;;;5048451;28;20471;-63
2021/10/31 07:10:40;;;;;;;72.40;34.43;;;9.40;99.70;;;;;;5046230;28;20951;-63
2021/10/31 07:13:07;;;;;;;72.97;36.87;;;9.40;99.70;;;;;;5048725;28;20993;-63
2021/10/31 07:15:33;;;;;;;76.37;38.10;;;9.40;99.70;;;;;;5049596;28;20934;-63
2021/10/31 07:18:02;;;;;;;75.43;34.10;;;9.40;99.70;;;;;;5049090;28;20490;-63
2021/10/31 07:20:29;;;;;;;73.80;36.20;;;9.50;99.70;;;;;;5048644;28;20448;-63
2021/10/31 07:22:56;;;;;;;76.00;38.97;;;9.50;99.70;;;;;;5046124;28;20501;-63
2021/10/31 07:25:24;;;;;;;75.27;37.07;;;9.70;99.70;;;;;;5037499;28;20830;-63
2021/10/31 07:27:52;;;;;;;74.80;38.43;;;9.70;99.70;;;;;;5049023;28;20982;-64
2021/10/31 07:30:19;;;;;;;85.47;64.23;;;9.80;99.70;;;;;;5049339;28;20452;-64
2021/10/31 07:32:54;;;;;;;80.30;49.33;;;9.90;99.70;;;;;;5049443;28;20849;-64
2021/10/31 07:35:22;;;;;;;84.53;53.63;;;9.90;99.70;;;;;;5046883;28;20451;-62
2021/10/31 07:37:49;;;;;;;92.03;85.10;;;9.90;99.70;;;;;;5048994;28;20463;-63
2021/10/31 07:40:16;;;;;;;87.67;62.30;;;9.90;99.70;;;;;;5049235;28;20487;-63
2021/10/31 07:42:42;;;;;;;90.17;61.63;;;9.90;99.70;;;;;;5047746;28;20841;-63
2021/10/31 07:45:10;;;;;;;94.83;73.40;;;9.90;99.70;;;;;;5049156;28;20444;-62
2021/10/31 07:47:37;;;;;;;99.37;92.63;;;9.90;99.70;;;;;;5049213;28;20463;-63
2021/10/31 07:50:05;;;;;;;118.40;112.70;;;9.90;99.70;;;;;;5051265;28;20440;-62
2021/10/31 07:52:33;;;;;;;118.73;113.07;;;9.80;99.70;;;;;;5049064;28;20486;-63
2021/10/31 07:55:03;;;;;;;104.70;92.73;;;9.80;99.70;;;;;;5033064;28;20444;-63
2021/10/31 07:57:33;;;;;;;98.23;77.27;;;9.90;99.70;;;;;;5032378;28;20448;-63
2021/10/31 07:59:59;;;;;;;106.83;88.07;;;9.90;99.70;;;;;;5039435;28;21160;-63
2021/10/31 08:02:26;;;;;;;100.37;83.70;;;10.00;99.70;;;;;;5042965;28;20843;-64
2021/10/31 08:04:53;;;;;;;78.20;44.10;;;10.10;99.70;;;;;;5052076;28;20831;-63
2021/10/31 08:07:26;;;;;;;75.03;33.80;;;10.10;99.70;;;;;;5044031;28;20870;-63
2021/10/31 08:09:55;;;;;;;82.47;42.97;;;10.10;99.70;;;;;;5040526;28;20503;-63
2021/10/31 08:12:22;;;;;;;74.23;26.33;;;10.10;99.70;;;;;;5040531;28;20503;-63
2021/10/31 08:14:48;;;;;;;71.50;31.67;;;10.30;99.70;;;;;;5040293;28;20482;-63
2021/10/31 08:17:15;;;;;;;67.00;25.47;;;10.50;99.70;;;;;;5045992;28;20463;-63
2021/10/31 08:19:42;;;;;;;69.70;23.60;;;10.70;99.70;;;;;;5044948;28;20488;-61
2021/10/31 08:22:08;;;;;;;80.00;29.03;;;10.80;99.70;;;;;;5039741;28;20841;-64
2021/10/31 08:24:35;;;;;;;70.50;27.50;;;10.90;99.70;;;;;;5040657;28;20440;-63
2021/10/31 08:27:03;;;;;;;66.20;25.70;;;10.90;99.70;;;;;;5041835;28;21004;-63
2021/10/31 08:29:30;;;;;;;63.83;23.43;;;11.00;99.70;;;;;;5042016;28;20859;-63
2021/10/31 08:31:57;;;;;;;60.73;20.00;;;11.10;99.70;;;;;;5041245;28;20509;-63
2021/10/31 08:34:25;;;;;;;64.30;24.17;;;11.10;99.70;;;;;;5041125;28;20446;-63
2021/10/31 08:36:52;;;;;;;62.30;21.37;;;11.10;99.70;;;;;;5040391;28;20537;-63
2021/10/31 08:39:19;;;;;;;63.50;22.50;;;11.20;99.70;;;;;;5043218;28;20492;-63
2021/10/31 08:41:46;;;;;;;62.10;24.10;;;11.20;99.70;;;;;;5046493;28;20475;-64
2021/10/31 08:44:14;;;;;;;66.20;26.53;;;11.20;99.70;;;;;;5042526;28;20923;-63
2021/10/31 08:46:41;;;;;;;61.97;21.70;;;11.20;99.70;;;;;;5040693;28;20445;-62
2021/10/31 08:49:08;;;;;;;64.10;20.70;;;11.20;99.70;;;;;;5038808;28;20470;-64
2021/10/31 08:51:35;;;;;;;61.57;20.20;;;11.40;99.70;;;;;;5040787;28;20839;-64
2021/10/31 08:54:01;;;;;;;60.17;20.30;;;11.40;99.70;;;;;;5051896;28;20443;-64
2021/10/31 08:56:29;;;;;;;61.70;21.00;;;11.40;99.70;;;;;;5049759;28;20454;-63
2021/10/31 08:58:56;;;;;;;61.10;19.17;;;11.50;99.70;;;;;;5051236;28;20525;-64
2021/10/31 09:01:24;;;;;;;69.97;24.30;;;11.50;99.70;;;;;;5045666;28;20557;-64
2021/10/31 09:03:53;;;;;;;65.00;19.87;;;11.70;99.70;;;;;;5040987;28;20456;-64
2021/10/31 09:06:20;;;;;;;69.53;34.77;;;11.90;99.70;;;;;;5033955;28;20459;-64
2021/10/31 09:08:47;;;;;;;80.33;37.67;;;12.20;99.70;;;;;;5030720;28;20518;-64
2021/10/31 09:11:14;;;;;;;72.77;43.63;;;12.70;99.70;;;;;;5035548;28;20460;-64
2021/10/31 09:13:41;;;;;;;87.27;82.27;;;13.10;99.70;;;;;;5039954;28;20893;-64
2021/10/31 09:16:07;;;;;;;87.33;83.10;;;13.30;99.70;;;;;;5039879;28;20777;-64
2021/10/31 09:18:37;;;;;;;70.13;42.63;;;13.30;99.70;;;;;;5044536;28;20477;-64
2021/10/31 09:21:04;;;;;;;66.63;33.83;;;13.20;99.70;;;;;;5044219;28;20492;-64
2021/10/31 09:23:32;;;;;;;81.00;56.83;;;13.20;99.70;;;;;;5040680;28;20452;-64
2021/10/31 09:25:59;;;;;;;66.70;32.47;;;13.20;99.70;;;;;;5039520;28;20440;-63
2021/10/31 09:28:26;;;;;;;75.17;60.13;;;13.30;99.70;;;;;;5040719;28;20457;-64
2021/10/31 09:30:53;;;;;;;74.47;51.97;;;13.40;99.70;;;;;;5040437;28;20432;-64
2021/10/31 09:33:20;;;;;;;104.27;99.03;;;13.50;99.70;;;;;;5038995;28;20440;-64
2021/10/31 09:35:51;;;;;;;120.87;115.07;;;13.70;99.70;;;;;;5039116;28;20433;-64
2021/10/31 09:38:20;;;;;;;85.97;70.43;;;13.70;99.70;;;;;;5038654;28;20464;-63
2021/10/31 09:40:47;;;;;;;88.90;77.63;;;13.70;99.70;;;;;;5038365;28;21032;-63
2021/10/31 09:43:15;;;;;;;83.30;60.60;;;13.60;99.70;;;;;;5040564;28;20447;-63
2021/10/31 09:45:41;;;;;;;82.83;66.37;;;13.50;99.70;;;;;;5045333;28;20834;-63
2021/10/31 09:48:10;;;;;;;72.03;42.70;;;13.60;99.70;;;;;;5039822;28;20484;-63
2021/10/31 09:50:40;;;;;;;75.73;52.73;;;13.60;99.70;;;;;;5039640;28;20437;-63
2021/10/31 09:53:09;;;;;;;66.37;34.27;;;13.60;99.70;;;;;;5035931;28;20484;-64
2021/10/31 09:55:36;;;;;;;70.43;32.37;;;13.60;99.70;;;;;;5032773;28;20448;-64
2021/10/31 09:58:06;;;;;;;60.70;33.47;;;13.50;99.70;;;;;;5048581;28;20476;-64
2021/10/31 10:00:36;;;;;;;64.23;32.27;;;13.50;99.70;;;;;;5049240;28;20479;-64
2021/10/31 10:03:35;;;;;;;74.30;47.83;;;13.70;99.70;;;;;;5040944;28;20837;-64
2021/10/31 10:06:14;;;;;;;60.83;23.00;;;13.70;99.70;;;;;;5037773;28;20506;-64
2021/10/31 10:08:58;;;;;;;64.47;27.90;;;13.60;99.70;;;;;;5037837;28;20490;-65
2021/10/31 10:11:25;;;;;;;72.20;48.50;;;13.60;99.70;;;;;;5037233;28;21105;-64
2021/10/31 10:13:53;;;;;;;69.33;37.47;;;13.50;99.70;;;;;;5038092;28;20448;-64
2021/10/31 10:16:29;;;;;;;63.40;29.27;;;13.50;99.70;;;;;;5037254;28;20443;-64
2021/10/31 10:18:56;;;;;;;70.03;42.20;;;13.50;99.70;;;;;;5046514;28;20487;-64
2021/10/31 10:21:25;;;;;;;65.30;36.13;;;13.60;99.70;;;;;;5038770;28;20812;-64
2021/10/31 10:23:56;;;;;;;69.47;34.40;;;13.70;99.70;;;;;;5039476;28;20982;-64
2021/10/31 10:26:31;;;;;;;71.50;34.23;;;13.80;99.70;;;;;;5045320;28;20493;-64
2021/10/31 10:29:12;;;;;;;60.20;25.43;;;13.90;99.70;;;;;;5039767;28;20470;-64
2021/10/31 10:31:44;;;;;;;56.63;19.60;;;14.00;99.70;;;;;;5040703;28;20510;-63
2021/10/31 10:34:12;;;;;;;63.53;28.77;;;13.90;99.70;;;;;;5037954;28;20462;-64
2021/10/31 10:36:44;;;;;;;58.27;21.90;;;14.00;99.70;;;;;;5041161;28;20463;-64
2021/10/31 10:39:16;;;;;;;60.30;27.43;;;14.10;99.70;;;;;;5041724;28;20483;-64
2021/10/31 10:41:45;;;;;;;60.40;27.33;;;14.20;99.70;;;;;;5040706;28;20451;-64
2021/10/31 10:44:25;;;;;;;67.97;38.50;;;14.30;99.70;;;;;;5035655;28;20440;-65
2021/10/31 10:46:55;;;;;;;68.03;38.17;;;14.40;99.70;;;;;;5028304;28;20826;-64
2021/10/31 10:49:23;;;;;;;65.37;32.90;;;14.50;99.70;;;;;;5027715;28;20999;-64
2021/10/31 10:52:20;;;;;;;59.70;28.00;;;14.50;99.70;;;;;;5038532;28;20453;-64
2021/10/31 10:55:00;;;;;;;67.37;42.37;;;14.60;99.70;;;;;;5028889;28;20429;-65
2021/10/31 10:57:28;;;;;;;69.53;47.23;;;14.70;99.70;;;;;;5030945;28;20918;-64
2021/10/31 10:59:57;;;;;;;61.90;22.97;;;14.70;99.70;;;;;;5039261;28;20922;-63
2021/10/31 11:02:26;;;;;;;68.93;40.97;;;14.60;99.70;;;;;;5039115;28;20550;-64
2021/10/31 11:04:55;;;;;;;64.30;33.43;;;14.60;99.70;;;;;;5040365;28;20554;-65
2021/10/31 11:07:30;;;;;;;67.90;43.57;;;14.60;99.70;;;;;;5039283;28;20447;-64
2021/10/31 11:09:59;;;;;;;85.20;81.10;;;14.80;99.70;;;;;;5039940;28;20960;-65
2021/10/31 11:12:33;;;;;;;68.17;46.80;;;14.80;99.70;;;;;;5037218;28;20891;-63
2021/10/31 11:15:03;;;;;;;79.63;71.03;;;14.70;99.70;;;;;;5039432;28;20459;-63
2021/10/31 11:17:30;;;;;;;98.67;93.90;;;14.80;99.70;;;;;;5038004;28;20436;-63
2021/10/31 11:19:58;;;;;;;112.00;106.60;;;14.90;99.70;;;;;;5036921;28;20542;-64
2021/10/31 11:22:29;;;;;;;101.60;96.70;;;15.10;99.70;;;;;;5038261;28;20467;-64
2021/10/31 11:24:58;;;;;;;104.87;99.83;;;15.20;99.70;;;;;;5041229;28;20471;-64
2021/10/31 11:27:27;;;;;;;96.40;91.77;;;15.20;99.70;;;;;;5040817;28;20900;-62
2021/10/31 11:29:55;;;;;;;112.97;107.57;;;15.20;99.70;;;;;;5041826;28;20911;-63
2021/10/31 11:32:24;;;;;;;110.57;105.27;;;15.30;99.70;;;;;;5038577;28;20474;-63
2021/10/31 11:34:54;;;;;;;101.33;96.43;;;15.40;99.70;;;;;;5036662;28;20455;-63
2021/10/31 11:37:23;;;;;;;106.57;101.43;;;15.30;99.70;;;;;;5041645;28;20460;-64
2021/10/31 11:39:55;;;;;;;90.60;86.27;;;15.30;99.70;;;;;;5043906;28;20895;-64
2021/10/31 11:42:24;;;;;;;85.80;81.67;;;15.40;99.70;;;;;;5042778;28;20879;-64
2021/10/31 11:45:09;;;;;;;101.87;96.97;;;15.40;99.70;;;;;;5039260;28;20447;-64
2021/10/31 11:47:37;;;;;;;84.90;80.80;;;15.50;99.70;;;;;;5042067;28;20544;-64
2021/10/31 11:50:10;;;;;;;47.10;7.10;;;15.70;99.70;;;;;;5042934;28;20792;-63
2021/10/31 11:52:59;;;;;;;57.80;34.53;;;15.80;99.70;;;;;;5041872;28;20213;-63
2021/10/31 11:55:34;;;;;;;63.93;47.07;;;16.00;99.70;;;;;;5035509;28;20464;-64
2021/10/31 11:58:54;;;;;;;82.20;78.23;;;16.30;99.70;;;;;;5040065;28;20460;-64
2021/10/31 12:01:24;;;;;;;78.27;74.47;;;16.20;99.70;;;;;;5040610;28;20476;-64
2021/10/31 12:03:52;;;;;;;76.60;72.90;;;16.10;99.70;;;;;;5040983;28;20452;-64
2021/10/31 12:06:48;;;;;;;57.70;30.50;;;16.40;99.70;;;;;;5040001;28;20468;-64
2021/10/31 12:09:34;;;;;;;45.90;7.70;;;16.60;99.70;;;;;;5043997;28;20863;-64
2021/10/31 12:12:16;;;;;;;48.40;12.40;;;17.00;99.70;;;;;;5039030;28;20826;-64
2021/10/31 12:14:56;;;;;;;47.97;13.30;;;17.20;99.70;;;;;;5039151;28;20440;-63
2021/10/31 12:17:24;;;;;;;49.43;14.13;;;17.20;99.70;;;;;;5044225;28;20447;-63
2021/10/31 12:19:52;;;;;;;47.27;11.20;;;17.50;99.70;;;;;;5041662;28;20451;-64
2021/10/31 12:22:21;;;;;;;49.63;15.03;;;17.60;99.70;;;;;;5040859;28;20449;-64
2021/10/31 12:24:49;;;;;;;47.90;11.13;;;17.60;99.70;;;;;;5042119;28;20444;-63
2021/10/31 12:27:18;;;;;;;49.20;16.00;;;17.60;99.70;;;;;;5043444;28;20439;-63
2021/10/31 12:29:54;;;;;;;53.67;24.90;;;17.70;99.70;;;;;;5035678;28;20464;-63
2021/10/31 12:32:23;;;;;;;51.70;20.20;;;17.70;99.70;;;;;;5038396;28;20536;-64
2021/10/31 12:34:52;;;;;;;50.40;18.27;;;17.80;99.70;;;;;;5039347;28;20456;-63
2021/10/31 12:37:25;;;;;;;51.10;21.13;;;17.90;99.70;;;;;;5042290;28;20468;-64
2021/10/31 12:39:54;;;;;;;52.30;21.40;;;17.70;99.70;;;;;;5040467;28;20815;-64
2021/10/31 12:42:24;;;;;;;51.27;21.83;;;17.60;99.70;;;;;;5039962;28;20814;-64
2021/10/31 12:44:55;;;;;;;52.10;24.53;;;17.70;99.70;;;;;;5040077;28;20461;-62
2021/10/31 12:47:26;;;;;;;55.73;32.40;;;18.00;99.70;;;;;;5039992;28;20454;-63
2021/10/31 12:50:09;;;;;;;52.50;27.60;;;18.40;99.70;;;;;;5042476;28;20525;-63
2021/10/31 12:52:36;;;;;;;54.23;29.77;;;18.20;99.70;;;;;;5039413;28;20448;-63
2021/10/31 12:55:07;;;;;;;53.93;30.90;;;18.10;99.70;;;;;;5039688;28;20463;-64
2021/10/31 12:57:34;;;;;;;51.67;24.70;;;18.10;99.10;;;;;;5039935;28;20462;-63
2021/10/31 13:00:06;;;;;;;51.13;23.93;;;18.20;98.00;;;;;;5041841;28;20490;-64
2021/10/31 13:02:35;;;;;;;55.80;30.30;;;18.00;99.60;;;;;;5035185;28;20457;-64
2021/10/31 13:05:06;;;;;;;52.47;27.13;;;17.90;98.60;;;;;;5033266;28;20451;-63
2021/10/31 13:07:46;;;;;;;50.50;23.83;;;17.90;98.50;;;;;;5034153;28;20940;-64
2021/10/31 13:10:17;;;;;;;51.40;23.33;;;17.80;99.70;;;;;;5040670;28;20529;-63
2021/10/31 13:12:45;;;;;;;50.90;25.40;;;18.00;97.80;;;;;;5039370;28;20470;-64
2021/10/31 13:15:14;;;;;;;51.40;26.23;;;18.30;95.10;;;;;;5040715;28;20443;-64
2021/10/31 13:17:46;;;;;;;50.70;25.30;;;18.50;94.10;;;;;;5040086;28;20528;-63
2021/10/31 13:20:22;;;;;;;47.17;16.80;;;18.60;94.50;;;;;;5039173;28;20449;-63
2021/10/31 13:22:57;;;;;;;51.83;26.63;;;18.50;95.70;;;;;;5039251;28;20444;-63
2021/10/31 13:25:30;;;;;;;49.97;20.43;;;18.20;96.50;;;;;;5039841;28;20502;-63
2021/10/31 13:27:59;;;;;;;52.53;27.63;;;18.10;98.20;;;;;;5038889;28;20574;-63
2021/10/31 13:30:33;;;;;;;49.63;21.70;;;18.40;95.30;;;;;;5040971;28;20463;-63
2021/10/31 13:33:02;;;;;;;48.23;19.80;;;18.20;96.90;;;;;;5039132;28;20541;-63
2021/10/31 13:35:30;;;;;;;51.00;23.40;;;18.00;97.80;;;;;;5040474;28;20432;-63
2021/10/31 13:38:05;;;;;;;49.77;19.70;;;17.90;98.80;;;;;;5041068;28;20468;-63
2021/10/31 13:40:32;;;;;;;49.30;20.40;;;17.80;98.80;;;;;;5038326;28;20482;-64
2021/10/31 13:42:59;;;;;;;54.33;22.63;;;18.20;97.20;;;;;;5038212;28;20452;-64
2021/10/31 13:45:26;;;;;;;49.83;21.87;;;18.30;96.30;;;;;;5042374;28;20466;-64
2021/10/31 13:47:55;;;;;;;52.10;25.10;;;18.40;96.20;;;;;;5037188;28;20459;-64
2021/10/31 13:50:26;;;;;;;50.43;21.50;;;18.40;96.10;;;;;;5039164;28;20966;-64
2021/10/31 13:52:57;;;;;;;52.67;23.77;;;18.50;96.00;;;;;;5034676;28;20999;-64
2021/10/31 13:55:26;;;;;;;51.00;21.63;;;18.40;96.20;;;;;;5041139;28;20468;-64
2021/10/31 13:57:53;;;;;;;52.33;19.70;;;18.20;97.40;;;;;;5040252;28;20465;-64
2021/10/31 14:00:23;;;;;;;50.07;22.00;;;18.10;97.90;;;;;;5040666;28;20436;-64
2021/10/31 14:02:51;;;;;;;51.83;23.53;;;18.00;99.20;;;;;;5039804;28;20440;-64
2021/10/31 14:05:20;;;;;;;52.60;25.77;;;18.20;96.40;;;;;;5039543;28;20447;-64
2021/10/31 14:07:51;;;;;;;52.27;24.53;;;18.10;96.70;;;;;;5040732;28;20469;-64
2021/10/31 14:10:20;;;;;;;52.43;22.83;;;18.10;96.70;;;;;;5038743;28;20821;-64
2021/10/31 14:12:48;;;;;;;52.00;19.73;;;18.00;97.50;;;;;;5040446;28;20472;-64
2021/10/31 14:15:16;;;;;;;51.67;24.07;;;17.90;99.20;;;;;;5045319;28;20463;-64
2021/10/31 14:17:55;;;;;;;50.73;21.00;;;17.80;98.10;;;;;;5041549;28;20449;-64
2021/10/31 14:20:22;;;;;;;50.17;20.47;;;17.70;99.70;;;;;;5041513;28;20848;-64
2021/10/31 14:22:53;;;;;;;49.67;21.10;;;17.40;99.70;;;;;;5038196;28;21019;-64
2021/10/31 14:25:22;;;;;;;48.50;18.13;;;17.40;99.70;;;;;;5038815;28;20440;-64
2021/10/31 14:27:50;;;;;;;51.03;20.53;;;17.40;99.60;;;;;;5039115;28;20532;-64
2021/10/31 14:30:23;;;;;;;50.70;22.30;;;17.40;99.70;;;;;;5038724;28;20465;-64
2021/10/31 14:32:59;;;;;;;50.10;20.93;;;17.30;99.70;;;;;;5037459;28;20474;-64
2021/10/31 14:35:40;;;;;;;51.00;23.20;;;17.30;99.70;;;;;;5038001;28;20447;-63
2021/10/31 14:38:11;;;;;;;51.27;24.23;;;17.30;99.70;;;;;;5043061;28;20490;-64
2021/10/31 14:40:39;;;;;;;52.73;24.90;;;17.30;99.70;;;;;;5041588;28;20435;-64
2021/10/31 14:43:18;;;;;;;53.57;24.57;;;17.40;99.70;;;;;;5035075;28;20447;-63
2021/10/31 14:45:59;;;;;;;;;;;17.20;99.70;;;;;;5030869;28;20448;-63
2021/10/31 14:48:30;;;;;;;47.38;6.95;;;17.10;99.70;;;;;;5034570;28;20966;-63
2021/10/31 14:51:12;;;;;;;47.30;13.43;;;17.10;99.70;;;;;;5039777;28;20664;-64
2021/10/31 14:53:40;;;;;;;;;;;17.00;99.70;;;;;;5033253;28;20496;-63
2021/10/31 14:56:07;;;;;;;;;;;16.90;99.70;;;;;;5049716;28;20429;-63
2021/10/31 14:58:33;;;;;;;51.97;33.53;;;17.00;99.70;;;;;;5051165;28;19928;-64
2021/10/31 15:01:00;;;;;;;62.47;29.80;;;16.80;99.70;;;;;;5042456;28;20247;-63
2021/10/31 15:03:27;;;;;;;67.13;31.60;;;16.80;99.70;;;;;;5049878;28;20875;-63
2021/10/31 15:05:54;;;;;;;62.17;27.33;;;16.60;99.70;;;;;;5044336;28;20445;-63
2021/10/31 15:08:20;;;;;;;56.87;24.13;;;16.50;99.70;;;;;;5033145;28;20844;-63
2021/10/31 15:10:49;;;;;;;54.63;22.00;;;16.30;99.70;;;;;;5043951;28;21055;-63
2021/10/31 15:13:16;;;;;;;58.10;23.90;;;16.10;99.70;;;;;;5043258;28;20927;-64
2021/10/31 15:15:43;;;;;;;62.37;25.80;;;16.10;99.70;;;;;;5045824;28;20456;-63
2021/10/31 15:18:10;;;;;;;61.70;27.83;;;16.00;99.70;;;;;;5044006;28;21145;-64
2021/10/31 15:20:45;;;;;;;59.53;25.93;;;16.20;99.70;;;;;;5046901;28;20467;-64
2021/10/31 15:23:13;;;;;;;57.03;24.93;;;16.10;99.70;;;;;;5043879;28;20531;-64
2021/10/31 15:25:39;;;;;;;58.27;27.57;;;16.10;99.70;;;;;;5042367;28;20435;-64
2021/10/31 15:28:08;;;;;;;60.30;27.03;;;16.40;99.70;;;;;;5042029;28;20529;-64
2021/10/31 15:30:34;;;;;;;;;;;16.50;99.70;;;;;;5041958;28;20535;-64
2021/10/31 15:33:02;;;;;;;;;;;16.50;99.70;;;;;;5040578;28;19925;-64
2021/10/31 15:35:29;;;;;;;66.78;20.17;;;16.30;99.70;;;;;;5041318;28;20440;-63
2021/10/31 15:37:57;;;;;;;58.27;14.80;;;16.40;99.70;;;;;;5039227;28;20230;-64
2021/10/31 15:40:24;;;;;;;60.10;22.57;;;16.30;99.70;;;;;;5047504;28;20471;-63
2021/10/31 15:42:52;;;;;;;63.07;20.10;;;16.30;99.70;;;;;;5045996;28;20479;-63
2021/10/31 15:45:20;;;;;;;96.03;32.00;;;16.30;99.70;;;;;;5051128;28;20530;-64
2021/10/31 15:47:47;;;;;;;71.90;30.50;;;16.30;99.70;;;;;;5048750;28;20475;-64
2021/10/31 15:50:15;;;;;;;62.13;13.02;;;16.30;99.70;;;;;;5041016;28;20437;-64
2021/10/31 15:52:42;;;;;;;;;;;16.30;99.70;;;;;;5043603;28;20194;-63
2021/10/31 15:55:09;;;;;;;51.90;10.35;;;16.30;99.70;;;;;;5045865;28;20816;-66
2021/10/31 15:57:36;;;;;;;52.20;17.80;;;16.30;99.70;;;;;;5046560;28;20216;-63
2021/10/31 16:00:05;;;;;;;48.50;13.27;;;16.20;99.70;;;;;;5038794;28;20208;-64
2021/10/31 16:02:35;;;;;;;51.17;15.43;;;16.10;99.70;;;;;;5038975;28;20974;-64
2021/10/31 16:05:02;;;;;;;49.60;13.93;;;16.30;99.70;;;;;;5048836;28;20463;-64
2021/10/31 16:07:28;;;;;;;51.20;12.50;;;16.20;99.70;;;;;;5050675;28;20456;-63
2021/10/31 16:09:55;;;;;;;55.40;17.03;;;16.20;99.70;;;;;;5048620;28;20455;-64
2021/10/31 16:12:22;;;;;;;56.93;17.47;;;16.00;99.70;;;;;;5037707;28;20439;-63
2021/10/31 16:14:48;;;;;;;57.37;18.23;;;15.90;99.70;;;;;;5040913;28;20487;-63
2021/10/31 16:17:15;;;;;;;58.20;16.63;;;15.70;99.70;;;;;;5040699;28;20570;-63
2021/10/31 16:19:43;;;;;;;53.07;14.60;;;15.50;99.70;;;;;;5036763;28;20499;-61
2021/10/31 16:22:10;;;;;;;57.57;19.70;;;15.30;99.70;;;;;;5037565;28;20479;-64
2021/10/31 16:24:37;;;;;;;53.33;15.50;;;15.20;99.70;;;;;;5040050;28;20433;-64
2021/10/31 16:27:04;;;;;;;51.07;14.33;;;15.20;99.70;;;;;;5040322;28;20494;-64
2021/10/31 16:29:31;;;;;;;52.57;14.40;;;15.10;99.70;;;;;;5041997;28;20483;-64
2021/10/31 16:31:58;;;;;;;50.23;13.43;;;15.00;99.70;;;;;;5040105;28;20459;-64
2021/10/31 16:34:25;;;;;;;51.90;14.03;;;14.90;99.70;;;;;;5042175;28;20478;-64
2021/10/31 16:36:54;;;;;;;49.03;12.50;;;14.90;99.70;;;;;;5035991;28;20544;-64
2021/10/31 16:39:21;;;;;;;48.60;13.37;;;14.80;99.70;;;;;;5031431;28;20484;-64
2021/10/31 16:41:49;;;;;;;49.83;15.73;;;14.60;99.70;;;;;;5030702;28;20999;-64
2021/10/31 16:44:16;;;;;;;50.70;16.00;;;14.50;99.70;;;;;;5044390;28;20468;-64
2021/10/31 16:46:43;;;;;;;53.17;16.90;;;14.70;99.70;;;;;;5035971;28;20445;-64
2021/10/31 16:49:10;;;;;;;58.73;20.30;;;14.60;99.70;;;;;;5035562;28;20479;-64
2021/10/31 16:51:37;;;;;;;84.77;29.80;;;14.50;99.70;;;;;;5043770;28;20848;-65
2021/10/31 16:54:06;;;;;;;68.90;25.97;;;14.50;99.70;;;;;;5038788;28;20816;-64
2021/10/31 16:56:35;;;;;;;55.37;19.20;;;14.40;99.70;;;;;;5039274;28;20541;-64
2021/10/31 16:59:04;;;;;;;51.33;18.20;;;14.30;99.70;;;;;;5041583;28;20459;-64
2021/10/31 17:01:31;;;;;;;53.10;17.83;;;14.30;99.70;;;;;;5039957;28;20476;-64
2021/10/31 17:03:58;;;;;;;53.33;17.50;;;14.30;99.70;;;;;;5046275;28;21016;-64
2021/10/31 17:06:25;;;;;;;49.83;15.80;;;14.20;99.70;;;;;;5040617;28;20499;-64
2021/10/31 17:08:51;;;;;;;50.60;15.83;;;14.10;99.70;;;;;;5037096;28;21010;-64
2021/10/31 17:11:19;;;;;;;50.10;14.00;;;14.00;99.70;;;;;;5045865;28;20808;-64
2021/10/31 17:13:46;;;;;;;50.77;15.30;;;13.80;99.70;;;;;;5032713;28;20475;-64
2021/10/31 17:16:13;;;;;;;54.40;18.40;;;13.80;99.70;;;;;;5039643;28;20459;-64
2021/10/31 17:18:40;;;;;;;51.70;16.10;;;13.70;99.70;;;;;;5040838;28;20553;-64
2021/10/31 17:21:07;;;;;;;51.90;17.00;;;13.60;99.70;;;;;;5043264;28;20475;-64
2021/10/31 17:23:36;;;;;;;50.30;14.80;;;13.60;99.70;;;;;;5043720;28;20486;-63
2021/10/31 17:26:03;;;;;;;53.77;17.20;;;13.50;99.70;;;;;;5047964;28;20487;-64
2021/10/31 17:28:32;;;;;;;51.77;16.30;;;13.40;99.70;;;;;;5045809;28;20549;-64
2021/10/31 17:30:59;;;;;;;53.13;17.90;;;13.30;99.70;;;;;;5044591;28;20474;-64
2021/10/31 17:33:26;;;;;;;53.03;19.20;;;13.30;99.70;;;;;;5033523;28;20825;-64
2021/10/31 17:35:53;;;;;;;54.20;22.50;;;13.20;99.70;;;;;;5045708;28;20456;-64
2021/10/31 17:38:20;;;;;;;56.33;23.77;;;13.20;99.70;;;;;;5046534;28;20491;-63
2021/10/31 17:40:47;;;;;;;54.83;25.03;;;13.10;99.70;;;;;;5040481;28;20968;-63